Time;durP1;ratioP1;P1;durP2;ratioP2;P2;SDS_P1;SDS_P2;PMS_P1;PMS_P2;Temp;Humidity;BMP_temperature;BMP_pressure;BME280_temperature;BME280_humidity;BME280_pressure;Samples;Min_cycle;Max_cycle;Signal;HPM_P1;HPM_P2
2022/10/04 00:00:22;;;;;;;;;38.33;34.67;;;;;14.13;66.93;101483.34;5037857;28;45390;-63
2022/10/04 00:02:48;;;;;;;;;37.75;33.75;;;;;14.10;66.89;101483.47;5056140;28;45447;-64
2022/10/04 00:05:17;;;;;;;;;37.00;33.33;;;;;14.08;66.66;101485.28;5055824;28;45540;-64
2022/10/04 00:07:51;;;;;;;;;37.33;30.67;;;;;14.05;66.12;101490.69;5055696;28;45416;-64
2022/10/04 00:10:23;;;;;;;;;41.33;34.33;;;;;14.05;66.95;101485.41;5055924;28;45516;-63
2022/10/04 00:13:04;;;;;;;;;36.00;32.00;;;;;14.03;66.22;101494.31;5055752;28;46459;-64
2022/10/04 00:15:33;;;;;;;;;33.33;30.67;;;;;14.03;66.64;101486.38;5055400;28;45483;-66
2022/10/04 00:18:01;;;;;;;;;37.00;31.67;;;;;14.09;66.49;101494.09;5053949;28;45486;-66
2022/10/04 00:20:46;;;;;;;;;32.33;30.00;;;;;14.09;66.85;101486.16;5054193;28;45378;-67
2022/10/04 00:23:23;;;;;;;;;40.67;32.33;;;;;14.09;66.65;101489.66;5053265;28;46093;-65
2022/10/04 00:25:55;;;;;;;;;36.67;33.00;;;;;14.08;66.88;101477.34;5036135;28;45588;-66
2022/10/04 00:28:20;;;;;;;;;35.67;33.00;;;;;14.12;65.89;101483.38;5054695;28;45436;-66
2022/10/04 00:31:14;;;;;;;;;38.00;33.00;;;;;14.07;66.83;101480.03;5054336;28;45634;-66
2022/10/04 00:34:07;;;;;;;;;43.33;36.00;;;;;14.06;66.54;101488.91;5053048;28;46089;-65
2022/10/04 00:36:56;;;;;;;;;39.33;33.33;;;;;14.04;65.99;101481.00;5035975;28;45427;-66
2022/10/04 00:39:25;;;;;;;;;39.25;34.25;;;;;14.09;65.85;101496.72;5025679;28;45482;-66
2022/10/04 00:42:16;;;;;;;;;36.67;33.67;;;;;14.06;66.67;101487.13;5057355;28;45397;-64
2022/10/04 00:45:19;;;;;;;;;38.33;34.67;;;;;14.07;66.57;101480.91;5057362;28;45472;-65
2022/10/04 00:47:44;;;;;;;;;33.67;31.67;;;;;14.05;65.88;101488.03;5006182;28;45564;-66
2022/10/04 00:50:19;;;;;;;;;41.33;35.33;;;;;14.02;66.79;101479.34;5056286;28;45462;-64
2022/10/04 00:52:52;;;;;;;;;36.33;33.33;;;;;13.92;66.23;101466.44;5039413;28;45549;-63
2022/10/04 00:55:33;;;;;;;;;42.25;36.50;;;;;13.97;66.50;101468.06;5056576;28;46294;-64
2022/10/04 00:58:02;;;;;;;;;37.00;34.33;;;;;13.94;66.50;101471.66;5057395;28;45497;-64
2022/10/04 01:00:32;;;;;;;;;41.00;35.25;;;;;13.95;66.86;101469.91;5056522;28;45616;-64
2022/10/04 01:03:06;;;;;;;;;42.50;37.25;;;;;13.89;67.18;101473.63;5057240;28;45493;-64
2022/10/04 01:05:40;;;;;;;;;34.33;32.00;;;;;13.91;66.87;101469.13;5039812;28;45534;-65
2022/10/04 01:08:13;;;;;;;;;38.67;34.00;;;;;13.90;66.84;101463.00;5057488;28;45490;-65
2022/10/04 01:11:08;;;;;;;;;39.00;34.33;;;;;13.89;66.84;101461.28;5057151;28;45469;-66
2022/10/04 01:13:41;;;;;;;;;36.33;32.67;;;;;13.95;66.76;101457.53;5039089;28;45415;-64
2022/10/04 01:16:13;;;;;;;;;41.00;34.33;;;;;13.95;66.77;101457.53;5056801;28;45579;-65
2022/10/04 01:18:39;;;;;;;;;36.67;32.67;;;;;13.90;66.51;101451.56;5056085;28;45572;-64
2022/10/04 01:21:17;;;;;;;;;36.00;33.00;;;;;13.81;66.88;101450.09;5038854;28;45491;-65
2022/10/04 01:23:46;;;;;;;;;41.33;34.67;;;;;13.85;66.67;101440.28;5055794;28;45488;-64
2022/10/04 01:26:33;;;;;;;;;40.67;33.00;;;;;13.88;66.36;101435.72;5056883;28;45521;-64
2022/10/04 01:29:05;;;;;;;;;40.67;35.00;;;;;13.83;66.07;101428.88;5056133;28;45505;-65
2022/10/04 01:31:33;;;;;;;;;43.50;35.75;;;;;13.84;66.89;101433.28;5057237;28;45474;-64
2022/10/04 01:34:00;;;;;;;;;40.00;35.25;;;;;13.86;66.65;101421.72;5038492;28;45763;-64
2022/10/04 01:36:26;;;;;;;;;40.50;34.75;;;;;13.84;66.69;101425.34;5056775;28;46587;-65
2022/10/04 01:38:52;;;;;;;;;45.25;35.00;;;;;13.74;66.71;101416.84;5038786;28;45419;-66
2022/10/04 01:41:25;;;;;;;;;37.33;33.33;;;;;13.77;67.40;101427.31;5038784;28;45467;-63
2022/10/04 01:43:57;;;;;;;;;35.67;32.33;;;;;13.69;67.36;101426.72;5056461;28;45443;-64
2022/10/04 01:46:27;;;;;;;;;39.67;34.33;;;;;13.76;66.86;101432.69;5056513;28;46281;-66
2022/10/04 01:48:55;;;;;;;;;37.00;33.00;;;;;13.70;67.01;101424.03;5038714;28;45402;-65
2022/10/04 01:51:32;;;;;;;;;39.67;33.67;;;;;13.69;67.07;101413.50;5056052;28;45463;-64
2022/10/04 01:54:04;;;;;;;;;43.00;35.67;;;;;13.77;66.71;101419.38;5038645;28;45430;-63
2022/10/04 01:56:53;;;;;;;;;33.50;31.50;;;;;13.77;67.01;101411.47;5056330;28;46720;-66
2022/10/04 01:59:25;;;;;;;;;38.75;34.50;;;;;13.73;66.89;101411.63;5024219;28;45478;-65
2022/10/04 02:02:08;;;;;;;;;39.25;35.75;;;;;13.66;66.88;101414.47;5056750;28;45539;-63
2022/10/04 02:04:38;;;;;;;;;41.25;36.75;;;;;13.64;67.00;101412.81;5056683;28;45984;-67
2022/10/04 02:07:12;;;;;;;;;39.50;35.50;;;;;13.62;67.28;101407.59;5057025;28;47391;-66
2022/10/04 02:09:42;;;;;;;;;40.00;36.00;;;;;13.63;67.92;101408.44;5056649;28;45501;-66
2022/10/04 02:12:08;;;;;;;;;37.00;33.00;;;;;13.64;67.15;101403.09;5056146;28;45505;-65
2022/10/04 02:14:36;;;;;;;;;40.50;34.50;;;;;13.61;66.81;101386.50;5056678;28;45438;-66
2022/10/04 02:17:09;;;;;;;;;40.25;35.00;;;;;13.66;66.54;101392.47;5038003;28;48354;-65
2022/10/04 02:19:39;;;;;;;;;35.33;33.00;;;;;13.62;67.11;101385.56;5056160;28;45571;-65
2022/10/04 02:22:08;;;;;;;;;41.00;35.00;;;;;13.66;66.73;101379.25;5056189;28;45438;-64
2022/10/04 02:24:39;;;;;;;;;38.00;32.50;;;;;13.60;66.96;101376.84;5055589;28;45985;-66
2022/10/04 02:27:05;;;;;;;;;39.00;33.67;;;;;13.56;66.75;101367.28;5055986;28;46305;-65
2022/10/04 02:29:31;;;;;;;;;43.00;37.00;;;;;13.57;66.97;101369.03;5056039;28;45506;-66
2022/10/04 02:34:43;;;;;;;;;36.50;33.25;;;;;13.48;66.86;101362.25;5054941;28;45513;-66
2022/10/04 02:37:09;;;;;;;;;38.67;34.33;;;;;13.45;67.04;101357.09;5056282;28;46637;-66
2022/10/04 02:39:51;;;;;;;;;39.67;33.00;;;;;13.48;67.36;101365.75;5055986;28;45518;-62
2022/10/04 02:42:34;;;;;;;;;31.33;27.33;;;;;13.53;66.79;101362.97;5056036;28;45559;-64
2022/10/04 02:45:10;;;;;;;;;39.67;33.00;;;;;13.50;66.67;101355.16;5055795;28;45526;-65
2022/10/04 02:47:47;;;;;;;;;40.33;36.00;;;;;13.51;66.58;101354.22;5055408;28;46130;-66
2022/10/04 02:50:29;;;;;;;;;39.25;33.50;;;;;13.50;66.43;101359.59;5036947;28;45491;-62
2022/10/04 02:53:07;;;;;;;;;40.75;33.75;;;;;13.47;66.22;101347.34;5055081;28;45467;-66
2022/10/04 02:55:32;;;;;;;;;41.25;35.75;;;;;13.48;66.75;101352.56;5055478;28;45565;-63
2022/10/04 02:57:59;;;;;;;;;39.75;34.75;;;;;13.49;66.70;101350.78;5055454;28;45471;-63
2022/10/04 03:00:28;;;;;;;;;42.00;36.00;;;;;13.48;66.34;101349.06;5055054;28;45742;-64
2022/10/04 03:03:20;;;;;;;;;41.50;35.50;;;;;13.46;66.78;101350.91;5026621;28;45478;-63
2022/10/04 03:06:17;;;;;;;;;37.33;34.00;;;;;13.41;66.54;101356.34;5018175;28;45500;-64
2022/10/04 03:08:48;;;;;;;;;39.75;35.50;;;;;13.40;66.94;101344.03;5016416;28;46637;-66
2022/10/04 03:11:15;;;;;;;;;41.75;35.75;;;;;13.42;66.68;101355.41;5035390;28;45531;-65
2022/10/04 03:13:45;;;;;;;;;37.00;34.50;;;;;13.34;67.01;101354.81;5035065;28;45581;-65
2022/10/04 03:16:11;;;;;;;;;44.00;38.75;;;;;13.35;66.71;101348.66;5051615;28;45560;-62
2022/10/04 03:18:38;;;;;;;;;41.67;37.33;;;;;13.37;67.37;101346.78;5055265;28;45461;-64
2022/10/04 03:21:11;;;;;;;;;38.00;32.75;;;;;13.31;67.21;101349.66;5036064;28;45460;-63
2022/10/04 03:23:38;;;;;;;;;34.33;32.00;;;;;13.29;67.27;101346.19;5055345;28;45504;-63
2022/10/04 03:26:31;;;;;;;;;44.25;35.50;;;;;13.31;67.26;101343.50;5022210;28;45668;-63
2022/10/04 03:28:58;;;;;;;;;32.00;29.00;;;;;13.33;66.97;101344.31;5035002;28;46162;-65
2022/10/04 03:31:26;;;;;;;;;40.00;32.33;;;;;13.34;66.92;101332.81;5035000;28;45474;-65
2022/10/04 03:33:55;;;;;;;;;36.00;34.00;;;;;13.28;66.91;101314.56;5035204;28;45531;-62
2022/10/04 03:36:23;;;;;;;;;37.50;33.75;;;;;13.33;66.91;101320.53;5035063;28;45489;-65
2022/10/04 03:38:52;;;;;;;;;33.00;32.67;;;;;13.32;66.34;101317.00;5034911;28;45524;-64
2022/10/04 03:41:18;;;;;;;;;29.33;29.00;;;;;13.34;66.56;101314.34;5034832;28;45523;-65
2022/10/04 03:43:48;;;;;;;;;34.00;32.00;;;;;13.30;66.58;101304.78;5042319;28;45423;-63
2022/10/04 03:46:14;;;;;;;;;29.67;28.33;;;;;13.26;66.83;101306.69;5034862;28;45563;-66
2022/10/04 03:48:51;;;;;;;;;38.00;34.00;;;;;13.28;66.62;101302.22;5034541;28;45487;-66
2022/10/04 03:51:20;;;;;;;;;34.00;32.33;;;;;13.31;65.89;101314.44;5034831;28;45524;-63
2022/10/04 03:53:52;;;;;;;;;44.33;37.00;;;;;13.27;66.60;101308.38;5035504;28;45438;-66
2022/10/04 03:56:22;;;;;;;;;35.00;33.00;;;;;13.24;66.14;101309.34;5054927;28;45435;-65
2022/10/04 03:58:50;;;;;;;;;35.33;34.33;;;;;13.23;66.57;101309.41;5054621;28;45475;-64
2022/10/04 04:01:29;;;;;;;;;33.33;32.67;;;;;13.24;66.72;101305.81;5054780;28;45426;-64
2022/10/04 04:04:14;;;;;;;;;32.00;30.00;;;;;13.21;66.66;101309.44;5055027;28;45463;-63
2022/10/04 04:07:01;;;;;;;;;33.67;32.00;;;;;13.16;66.92;101307.88;5055532;28;45459;-65
2022/10/04 04:09:49;;;;;;;;;34.50;32.00;;;;;13.21;66.39;101313.88;5054031;28;45960;-66
2022/10/04 04:12:22;;;;;;;;;35.67;34.00;;;;;13.20;66.17;101307.72;5035577;28;45432;-64
2022/10/04 04:14:50;;;;;;;;;34.25;32.00;;;;;13.18;66.34;101308.69;5035913;28;45893;-63
2022/10/04 04:17:26;;;;;;;;;30.75;29.25;;;;;13.15;66.31;101314.94;5036774;28;45487;-66
2022/10/04 04:19:56;;;;;;;;;29.67;29.33;;;;;13.09;66.24;101311.66;5054291;28;45563;-64
2022/10/04 04:22:22;;;;;;;;;32.67;29.67;;;;;13.10;66.37;101319.50;5053232;28;45449;-66
2022/10/04 04:24:49;;;;;;;;;32.33;30.67;;;;;13.07;66.43;101321.41;5054027;28;45442;-63
2022/10/04 04:27:18;;;;;;;;;35.00;32.33;;;;;13.05;66.69;101332.00;5036337;28;45411;-62
2022/10/04 04:29:51;;;;;;;;;33.33;30.00;;;;;13.02;66.55;101321.56;5053750;28;45497;-66
2022/10/04 04:32:24;;;;;;;;;28.00;26.00;;;;;13.05;66.79;101330.22;5050025;28;45518;-63
2022/10/04 04:34:57;;;;;;;;;31.33;28.00;;;;;13.08;66.63;101339.81;5034242;28;45429;-65
2022/10/04 04:37:23;;;;;;;;;27.33;26.33;;;;;13.07;66.39;101340.75;5046590;28;45515;-66
2022/10/04 04:39:53;;;;;;;;;29.33;29.00;;;;;13.08;67.02;101347.75;5052438;28;45978;-66
2022/10/04 04:42:32;;;;;;;;;35.00;33.33;;;;;13.08;67.03;101344.25;5028626;28;45562;-64
2022/10/04 04:45:02;;;;;;;;;33.67;30.00;;;;;13.01;66.52;101333.91;5034249;28;45396;-65
2022/10/04 04:47:35;;;;;;;;;30.00;30.00;;;;;13.07;66.81;101329.34;5034280;28;45536;-65
2022/10/04 04:50:06;;;;;;;;;34.00;33.00;;;;;13.04;66.90;101325.88;5031878;28;46960;-64
2022/10/04 04:52:34;;;;;;;;;32.00;30.00;;;;;13.05;67.00;101340.78;5054115;28;45458;-65
2022/10/04 04:55:00;;;;;;;;;7.33;6.00;;;;;13.02;66.63;101332.97;5054118;28;45487;-64
2022/10/04 04:57:26;;;;;;;;;34.00;32.00;;;;;12.96;67.34;101337.63;5035886;28;45467;-63
2022/10/04 04:59:56;;;;;;;;;34.75;32.25;;;;;12.92;67.38;101335.97;5050681;28;45593;-65
2022/10/04 05:02:34;;;;;;;;;35.00;33.00;;;;;12.95;67.28;101341.16;5047301;28;45424;-64
2022/10/04 05:05:30;;;;;;;;;27.67;27.67;;;;;12.92;66.89;101331.59;5034103;28;45420;-64
2022/10/04 05:08:19;;;;;;;;;32.25;30.00;;;;;12.95;67.02;101344.69;5017645;28;45496;-64
2022/10/04 05:11:00;;;;;;;;;37.25;32.25;;;;;12.96;66.56;101343.75;5033538;28;45668;-65
2022/10/04 05:13:38;;;;;;;;;35.50;32.00;;;;;12.87;66.70;101343.19;5033779;28;45506;-66
2022/10/04 05:16:05;;;;;;;;;34.75;32.00;;;;;12.85;67.26;101340.59;5038199;28;45534;-63
2022/10/04 05:18:32;;;;;;;;;33.75;31.50;;;;;12.79;67.23;101338.19;5047854;28;45454;-63
2022/10/04 05:21:14;;;;;;;;;38.25;33.00;;;;;12.70;67.81;101336.69;5033302;28;45632;-64
2022/10/04 05:23:40;;;;;;;;;38.50;33.75;;;;;12.80;67.37;101353.94;5033642;28;45439;-63
2022/10/04 05:26:11;;;;;;;;;37.25;33.00;;;;;12.87;67.28;101345.81;5034001;28;45438;-64
2022/10/04 05:28:37;;;;;;;;;37.00;33.25;;;;;12.89;67.19;101341.38;5040222;28;45957;-65
2022/10/04 05:31:26;;;;;;;;;37.75;32.50;;;;;12.89;66.64;101342.22;5047964;28;45529;-66
2022/10/04 05:33:56;;;;;;;;;37.50;31.75;;;;;12.88;67.08;101337.88;5031180;28;45491;-63
2022/10/04 05:37:02;;;;;;;;;32.67;31.00;;;;;12.78;66.75;101325.88;5041062;28;45556;-65
2022/10/04 05:39:45;;;;;;;;;28.00;26.00;;;;;12.84;66.73;101320.38;5019021;28;45393;-64
2022/10/04 05:42:38;;;;;;;;;35.00;30.00;;;;;12.86;66.80;101334.41;5052589;28;45689;-62
2022/10/04 05:45:16;;;;;;;;;35.33;31.67;;;;;12.87;67.19;101328.22;5032194;28;45441;-67
2022/10/04 05:47:42;;;;;;;;;35.00;32.50;;;;;12.83;66.96;101326.59;5056789;28;45481;-63
2022/10/04 05:50:20;;;;;;;;;32.67;30.67;;;;;12.82;66.37;101336.28;5056340;28;45836;-66
2022/10/04 05:52:49;;;;;;;;;30.33;29.00;;;;;12.85;66.83;101339.75;5056558;28;46494;-66
2022/10/04 05:55:16;;;;;;;;;34.50;30.00;;;;;12.85;65.76;101342.41;5055677;28;45614;-63
2022/10/04 05:57:56;;;;;;;;;31.33;30.00;;;;;12.79;65.95;101341.69;5054494;28;45578;-63
2022/10/04 06:00:31;;;;;;;;;34.00;30.00;;;;;12.78;65.69;101333.78;5040425;28;45606;-63
2022/10/04 06:02:56;;;;;;;;;36.50;30.50;;;;;12.80;65.51;101335.47;5032112;28;47471;-63
2022/10/04 06:05:35;;;;;;;;;31.50;29.75;;;;;12.77;65.26;101327.66;5047519;28;45425;-60
2022/10/04 06:08:12;;;;;;;;;29.67;28.00;;;;;12.69;65.51;101315.63;5055457;28;45454;-63
2022/10/04 06:10:58;;;;;;;;;27.00;24.67;;;;;12.74;65.96;101332.19;5043616;28;45566;-63
2022/10/04 06:13:53;;;;;;;;;31.33;27.00;;;;;12.69;66.18;101334.09;5038177;28;46070;-63
2022/10/04 06:16:35;;;;;;;;;31.00;31.00;;;;;12.67;65.60;101336.78;5038145;28;45465;-63
2022/10/04 06:19:15;;;;;;;;;33.00;29.67;;;;;12.64;66.24;101336.88;5037901;28;45484;-65
2022/10/04 06:21:52;;;;;;;;;34.67;30.33;;;;;12.61;66.43;101331.72;5048115;28;45657;-64
2022/10/04 06:24:24;;;;;;;;;33.25;30.25;;;;;12.55;65.94;101319.59;5053873;28;45459;-65
2022/10/04 06:26:58;;;;;;;;;34.75;32.75;;;;;12.52;66.34;101324.06;5056145;28;45411;-65
2022/10/04 06:29:29;;;;;;;;;32.33;29.67;;;;;12.52;66.85;101340.78;5055581;28;45497;-65
2022/10/04 06:32:31;;;;;;;;;29.00;28.00;;;;;12.49;66.24;101354.09;5056337;28;45509;-64
2022/10/04 06:35:19;;;;;;;;;29.00;29.00;;;;;12.44;67.13;101348.09;5033832;28;46565;-63
2022/10/04 06:38:07;;;;;;;;;37.50;33.75;;;;;12.38;67.19;101350.88;5055032;28;45460;-63
2022/10/04 06:40:51;;;;;;;;;35.50;31.25;;;;;12.43;67.20;101351.59;5037922;28;45781;-63
2022/10/04 06:43:28;;;;;;;;;37.00;32.33;;;;;12.43;67.57;101359.53;5055467;28;45423;-63
2022/10/04 06:45:59;;;;;;;;;34.33;30.00;;;;;12.42;67.54;101362.22;5055179;28;46045;-63
2022/10/04 06:48:53;;;;;;;;;29.33;27.33;;;;;12.32;67.18;101357.22;5055460;28;45473;-63
2022/10/04 06:51:38;;;;;;;;;28.00;25.33;;;;;12.38;67.23;101356.16;5055399;28;45586;-63
2022/10/04 06:54:33;;;;;;;;;28.67;27.33;;;;;12.39;67.69;101357.91;5055227;28;45506;-63
2022/10/04 06:57:35;;;;;;;;;30.00;28.67;;;;;12.34;67.83;101354.53;5055089;28;45557;-63
2022/10/04 07:00:22;;;;;;;;;27.67;27.00;;;;;12.36;67.25;101360.66;5054255;28;45462;-63
2022/10/04 07:02:56;;;;;;;;;29.67;27.67;;;;;12.34;66.91;101351.91;5055384;28;45501;-63
2022/10/04 07:05:38;;;;;;;;;28.00;27.00;;;;;12.33;67.67;101360.72;5055253;28;45541;-63
2022/10/04 07:08:30;;;;;;;;;34.67;30.00;;;;;12.21;68.12;101342.63;5055408;28;45571;-63
2022/10/04 07:11:10;;;;;;;;;29.33;29.33;;;;;12.29;67.84;101361.72;5055097;28;45474;-64
2022/10/04 07:14:02;;;;;;;;;33.00;29.33;;;;;12.29;67.73;101354.69;5055104;28;45442;-63
2022/10/04 07:16:48;;;;;;;;;31.00;31.00;;;;;12.30;67.58;101355.53;5054838;28;45458;-63
2022/10/04 07:19:19;;;;;;;;;33.67;30.67;;;;;12.31;68.28;101360.78;5054538;28;45561;-63
2022/10/04 07:21:59;;;;;;;;;31.75;29.50;;;;;12.31;68.42;101365.19;5054476;28;45517;-63
2022/10/04 07:25:04;;;;;;;;;34.25;31.75;;;;;12.31;68.40;101365.19;5054695;28;45438;-63
2022/10/04 07:27:33;;;;;;;;;32.00;30.00;;;;;12.33;68.16;101366.88;5054800;28;45583;-63
2022/10/04 07:30:03;;;;;;;;;33.33;30.33;;;;;12.35;68.19;101365.03;5054728;28;45453;-63
2022/10/04 07:32:34;;;;;;;;;34.50;30.75;;;;;12.33;68.20;101366.00;5054841;28;45414;-63
2022/10/04 07:35:08;;;;;;;;;30.33;29.67;;;;;12.35;68.03;101365.03;5054575;28;45568;-63
2022/10/04 07:37:52;;;;;;;;;37.25;32.50;;;;;12.30;67.85;101366.09;5054721;28;45612;-63
2022/10/04 07:40:28;;;;;;;;;32.67;31.67;;;;;12.33;68.16;101377.44;5054398;28;45556;-63
2022/10/04 07:43:06;;;;;;;;;27.33;27.00;;;;;12.35;67.85;101374.72;5054621;28;45459;-64
2022/10/04 07:45:36;;;;;;;;;33.00;30.33;;;;;12.38;68.60;101379.91;5054646;28;45505;-63
2022/10/04 07:48:15;;;;;;;;;31.25;29.75;;;;;12.39;68.45;101379.00;5054676;28;45605;-63
2022/10/04 07:51:08;;;;;;;;;33.67;30.00;;;;;12.34;68.43;101373.00;5053988;28;45458;-63
2022/10/04 07:53:44;;;;;;;;;32.00;30.33;;;;;12.35;68.61;101372.09;5036097;28;45558;-63
2022/10/04 07:56:16;;;;;;;;;35.00;31.33;;;;;12.34;68.72;101363.31;5054223;28;45486;-63
2022/10/04 07:58:57;;;;;;;;;34.00;31.50;;;;;12.37;69.01;101357.09;5019623;28;45394;-63
2022/10/04 08:01:32;;;;;;;;;36.25;31.00;;;;;12.41;67.84;101374.53;5053894;28;46240;-63
2022/10/04 08:04:21;;;;;;;;;34.50;31.00;;;;;12.41;68.12;101371.91;5054161;28;45509;-63
2022/10/04 08:07:19;;;;;;;;;32.67;31.33;;;;;12.45;68.63;101365.63;5054774;28;45425;-63
2022/10/04 08:09:56;;;;;;;;;42.75;35.50;;;;;12.45;68.69;101363.00;5054179;28;45483;-63
2022/10/04 08:12:40;;;;;;;;;33.00;31.00;;;;;12.45;68.93;101357.72;5053860;28;45550;-63
2022/10/04 08:15:12;;;;;;;;;36.25;33.00;;;;;12.46;68.80;101356.78;5053929;28;45394;-63
2022/10/04 08:18:04;;;;;;;;;40.00;34.00;;;;;12.48;68.87;101352.34;5054100;28;45427;-63
2022/10/04 08:20:53;;;;;;;;;31.67;30.67;;;;;12.51;68.57;101349.59;5053886;28;45623;-63
2022/10/04 08:23:54;;;;;;;;;41.25;34.50;;;;;12.50;68.98;101352.31;5053789;28;46368;-63
2022/10/04 08:26:35;;;;;;;;;37.25;34.25;;;;;12.49;69.12;101356.72;5054086;28;45566;-63
2022/10/04 08:29:43;;;;;;;;;38.50;34.50;;;;;12.54;68.87;101351.28;5054102;28;45496;-62
2022/10/04 08:32:37;;;;;;;;;36.25;30.50;;;;;12.59;69.37;101352.84;5053887;28;45519;-63
2022/10/04 08:35:28;;;;;;;;;37.25;33.50;;;;;12.61;69.61;101358.09;5041750;28;46804;-63
2022/10/04 08:38:02;;;;;;;;;38.50;34.50;;;;;12.69;68.71;101376.34;5035640;28;46464;-63
2022/10/04 08:40:49;;;;;;;;;44.25;37.25;;;;;12.70;69.47;101373.63;5053704;28;45544;-63
2022/10/04 08:43:14;;;;;;;;;43.25;36.75;;;;;12.74;69.28;101382.34;5053678;28;45563;-63
2022/10/04 08:45:55;;;;;;;;;39.50;34.50;;;;;12.74;68.86;101385.84;5035147;28;46741;-63
2022/10/04 08:48:57;;;;;;;;;41.25;35.75;;;;;12.75;69.10;101394.59;5053634;28;45505;-63
2022/10/04 08:51:44;;;;;;;;;38.75;32.75;;;;;12.75;69.32;101387.53;5053638;28;45561;-63
2022/10/04 08:54:40;;;;;;;;;35.25;32.50;;;;;12.77;68.86;101387.50;5053505;28;45473;-63
2022/10/04 08:57:37;;;;;;;;;39.75;35.50;;;;;12.77;69.09;101391.00;5053309;28;46736;-64
2022/10/04 09:00:31;;;;;;;;;35.00;32.00;;;;;12.81;69.41;101395.28;5053504;28;45460;-63
2022/10/04 09:03:11;;;;;;;;;39.25;35.75;;;;;12.85;69.29;101390.78;5056965;28;45467;-63
2022/10/04 09:05:55;;;;;;;;;47.25;38.75;;;;;12.90;69.59;101394.13;5056997;28;45541;-63
2022/10/04 09:08:39;;;;;;;;;43.75;36.00;;;;;12.93;69.11;101393.16;5039234;28;48260;-63
2022/10/04 09:11:10;;;;;;;;;35.75;33.00;;;;;12.96;68.96;101396.56;5057030;28;45581;-63
2022/10/04 09:13:50;;;;;;;;;44.25;37.50;;;;;13.00;69.33;101395.56;5056966;28;45586;-63
2022/10/04 09:16:33;;;;;;;;;36.75;32.50;;;;;13.03;68.58;101397.25;5038809;28;45498;-64
2022/10/04 09:19:32;;;;;;;;;35.75;31.75;;;;;13.05;68.72;101392.75;5056500;28;46151;-64
2022/10/04 09:22:16;;;;;;;;;41.50;35.75;;;;;13.09;69.19;101390.91;5054798;28;45471;-63
2022/10/04 09:25:09;;;;;;;;;41.25;36.25;;;;;13.14;69.16;101399.53;5056512;28;45617;-63
2022/10/04 09:27:54;;;;;;;;;39.50;34.00;;;;;13.19;68.94;101403.75;5038796;28;45526;-63
2022/10/04 09:30:23;;;;;;;;;41.75;36.75;;;;;13.22;69.17;101394.84;5056077;28;45592;-63
2022/10/04 09:33:20;;;;;;;;;44.75;38.75;;;;;13.19;69.68;101384.38;5038330;28;45396;-63
2022/10/04 09:36:24;;;;;;;;;43.00;36.00;;;;;13.30;69.38;101390.19;5056442;28;45556;-63
2022/10/04 09:38:50;;;;;;;;;42.75;37.25;;;;;13.46;69.19;101387.91;5056444;28;45558;-63
2022/10/04 09:41:30;;;;;;;;;42.50;35.25;;;;;13.55;69.19;101386.72;5056239;28;45495;-63
2022/10/04 09:44:05;;;;;;;;;49.25;39.50;;;;;13.69;69.24;101371.22;5056426;28;45541;-64
2022/10/04 09:46:43;;;;;;;;;49.00;39.00;;;;;13.92;68.89;101365.97;5056428;28;45573;-63
2022/10/04 09:49:50;;;;;;;;;44.25;38.25;;;;;14.07;68.39;101358.38;5056162;28;45574;-63
2022/10/04 09:52:21;;;;;;;;;42.50;36.25;;;;;14.17;68.11;101358.88;5055902;28;45992;-64
2022/10/04 09:55:03;;;;;;;;;40.50;34.75;;;;;14.15;67.59;101353.66;5056262;28;45586;-63
2022/10/04 09:57:32;;;;;;;;;43.50;35.75;;;;;14.23;68.26;101366.59;5037973;28;45496;-63
2022/10/04 10:00:04;;;;;;;;;45.50;39.00;;;;;14.26;68.33;101369.09;5055991;28;45446;-64
2022/10/04 10:02:39;;;;;;;;;43.50;36.25;;;;;14.29;68.70;101371.63;5037457;28;48105;-63
2022/10/04 10:05:14;;;;;;;;;43.00;36.00;;;;;14.41;68.58;101371.16;5056006;28;45522;-63
2022/10/04 10:08:06;;;;;;;;;47.00;39.00;;;;;14.57;68.29;101364.38;5056712;28;45441;-63
2022/10/04 10:14:06;;;;;;;;;47.00;38.50;;;;;14.70;67.71;101358.59;5021294;28;45790;-62
2022/10/04 10:17:19;;;;;;;;;43.25;35.75;;;;;14.69;67.17;101354.22;5055499;28;45575;-63
2022/10/04 10:20:00;;;;;;;;;50.50;42.50;;;;;14.71;66.86;101353.22;5030224;28;45507;-63
2022/10/04 10:23:13;;;;;;;;;51.75;43.50;;;;;14.72;67.62;101348.78;5037741;28;45479;-63
2022/10/04 10:25:58;;;;;;;;;48.75;40.00;;;;;14.76;67.59;101343.31;5046113;28;46047;-63
2022/10/04 10:28:24;;;;;;;;;52.50;44.50;;;;;14.79;66.96;101340.53;5055272;28;45489;-62
2022/10/04 10:31:04;;;;;;;;;58.50;47.25;;;;;14.85;67.80;101336.78;5055414;28;45518;-62
2022/10/04 10:33:37;;;;;;;;;50.50;42.00;;;;;14.90;66.74;101336.59;5055361;28;45534;-62
2022/10/04 10:36:11;;;;;;;;;56.25;43.75;;;;;14.95;67.47;101338.13;5055278;28;46141;-62
2022/10/04 10:39:02;;;;;;;;;40.00;36.00;;;;;14.98;66.66;101326.53;5055149;28;45502;-62
2022/10/04 10:41:55;;;;;;;;;46.67;38.00;;;;;15.08;67.34;101329.69;5029800;28;45593;-62
2022/10/04 10:44:28;;;;;;;;;42.33;33.33;;;;;15.16;66.06;101328.41;5047771;28;45423;-60
2022/10/04 10:47:31;;;;;;;;;54.25;45.00;;;;;15.19;66.98;101320.31;5037129;28;46337;-61
2022/10/04 10:50:21;;;;;;;;;37.33;33.67;;;;;15.23;65.78;101324.59;5055701;28;45431;-60
2022/10/04 10:53:05;;;;;;;;;36.67;32.67;;;;;15.29;65.95;101330.56;5054568;28;45491;-61
2022/10/04 10:55:33;;;;;;;;;47.00;39.75;;;;;15.32;65.98;101327.75;5035545;28;45447;-61
2022/10/04 10:58:26;;;;;;;;;49.50;42.50;;;;;15.27;66.62;101314.69;5052919;28;46106;-61
2022/10/04 11:01:23;;;;;;;;;45.25;38.00;;;;;15.35;66.14;101323.19;5049927;28;45438;-61
2022/10/04 11:04:18;;;;;;;;;47.25;40.00;;;;;15.38;66.22;101328.34;5021685;28;45532;-61
2022/10/04 11:07:22;;;;;;;;;46.25;37.50;;;;;15.37;66.21;101323.97;5035267;28;45651;-63
2022/10/04 11:10:03;;;;;;;;;43.33;35.00;;;;;15.44;66.02;101321.91;4993013;28;46193;-61
2022/10/04 11:13:02;;;;;;;;;41.33;33.00;;;;;15.47;65.95;101324.41;5038404;28;45481;-60
2022/10/04 11:16:16;;;;;;;;;37.00;31.67;;;;;15.46;65.97;101312.09;5053166;28;45458;-61
2022/10/04 11:18:47;;;;;;;;;38.00;32.33;;;;;15.54;66.02;101330.31;5055015;28;45506;-61
2022/10/04 11:21:28;;;;;;;;;44.00;33.33;;;;;15.54;65.97;101332.97;5054355;28;45541;-61
2022/10/04 11:23:53;;;;;;;;;40.00;34.67;;;;;15.55;65.60;101345.28;5052326;28;45434;-61
2022/10/04 11:26:46;;;;;;;;;35.33;32.67;;;;;15.55;65.19;101342.63;5055009;28;45529;-64
2022/10/04 11:29:27;;;;;;;;;35.67;32.33;;;;;15.59;65.57;101336.28;5054974;28;45438;-61
2022/10/04 11:32:19;;;;;;;;;31.33;29.67;;;;;15.62;66.10;101337.00;5016622;28;46931;-63
2022/10/04 11:35:25;;;;;;;;;39.00;33.00;;;;;15.65;65.62;101333.34;5035327;28;45533;-64
2022/10/04 11:38:18;;;;;;;;;36.33;33.00;;;;;15.69;65.49;101342.94;5054876;28;45523;-62
2022/10/04 11:41:23;;;;;;;;;30.33;30.00;;;;;15.70;66.00;101344.66;5054984;28;45438;-61
2022/10/04 11:44:08;;;;;;;;;34.67;32.33;;;;;15.76;64.82;101348.81;4998796;28;45612;-62
2022/10/04 11:46:47;;;;;;;;;27.67;27.67;;;;;15.74;64.77;101340.06;5052801;28;45452;-60
2022/10/04 11:49:18;;;;;;;;;32.00;30.33;;;;;15.78;65.70;101350.47;5034534;28;45458;-63
2022/10/04 11:52:03;;;;;;;;;28.00;27.33;;;;;15.84;65.29;101354.63;5034283;28;45631;-61
2022/10/04 11:54:52;;;;;;;;;33.33;30.00;;;;;15.91;65.66;101342.81;5043814;28;45505;-63
2022/10/04 11:57:44;;;;;;;;;32.00;30.00;;;;;16.01;65.58;101344.13;5034940;28;45561;-62
2022/10/04 12:00:14;;;;;;;;;32.33;30.00;;;;;16.12;64.78;101338.34;5039109;28;45480;-60
2022/10/04 12:03:34;;;;;;;;;32.33;29.00;;;;;16.32;64.13;101332.91;5035729;28;45528;-63
2022/10/04 12:06:02;;;;;;;;;26.67;26.67;;;;;16.57;64.09;101332.59;4971861;28;45552;-60
2022/10/04 12:08:32;;;;;;;;;27.33;26.00;;;;;16.76;63.51;101327.28;5048788;28;45470;-63